Time;durP1;ratioP1;P1;durP2;ratioP2;P2;SDS_P1;SDS_P2;PMS_P1;PMS_P2;Temp;Humidity;BMP_temperature;BMP_pressure;BME280_temperature;BME280_humidity;BME280_pressure;Samples;Min_cycle;Max_cycle;Signal;HPM_P1;HPM_P2
2021/12/25 00:01:55;;;;;;;31.27;17.02;;;;;;;9.53;64.78;100292.22;4960922;28;20123;-80
2021/12/25 00:04:40;;;;;;;40.90;22.80;;;;;;;9.48;65.20;100279.59;4959634;28;20039;-79
2021/12/25 00:07:25;;;;;;;46.25;23.88;;;;;;;9.50;65.02;100254.84;4973654;28;20050;-79
2021/12/25 00:10:10;;;;;;;32.47;18.00;;;;;;;9.54;64.15;100262.03;4971694;28;20042;-80
2021/12/25 00:12:55;;;;;;;;;;;;;;;9.68;63.20;100261.88;4970744;28;20046;-81
2021/12/25 00:15:41;;;;;;;42.42;22.10;;;;;;;9.60;64.00;100265.41;4957165;28;19918;-80
2021/12/25 00:18:27;;;;;;;48.63;25.05;;;;;;;9.48;63.28;100273.38;4964935;28;20046;-80
2021/12/25 00:21:12;;;;;;;34.25;18.80;;;;;;;9.65;63.55;100267.94;4969261;28;20051;-81
2021/12/25 00:23:57;;;;;;;45.63;22.92;;;;;;;9.51;64.66;100278.94;4941982;28;20039;-80
2021/12/25 00:35:06;;;;;;;50.50;24.75;;;;;;;9.65;64.24;100268.72;4967412;28;20058;-80
2021/12/25 00:37:51;;;;;;;;;;;;;;;9.72;64.70;100262.81;4954322;28;20669;-80
2021/12/25 00:40:37;;;;;;;32.22;16.67;;;;;;;9.81;64.86;100250.84;4965223;28;19914;-81
2021/12/25 00:43:22;;;;;;;42.22;22.35;;;;;;;9.82;63.68;100244.28;4970919;28;20046;-81
2021/12/25 00:46:08;;;;;;;37.78;18.85;;;;;;;9.48;63.29;100249.75;4975194;28;20039;-80
2021/12/25 00:48:53;;;;;;;38.13;21.38;;;;;;;9.61;64.33;100253.41;4972763;28;20542;-79
2021/12/25 00:51:38;;;;;;;;;;;;;;;9.68;64.17;100261.88;4966214;28;20034;-80
2021/12/25 00:54:23;;;;;;;45.72;24.38;;;;;;;9.49;63.83;100254.06;4973564;28;19914;-80
2021/12/25 00:57:08;;;;;;;50.95;23.10;;;;;;;9.62;64.24;100255.00;4975230;28;20039;-80
2021/12/25 00:59:53;;;;;;;33.47;18.05;;;;;;;9.70;64.76;100256.94;4984604;28;20061;-80
2021/12/25 01:02:41;;;;;;;48.30;25.88;;;;;;;9.57;63.89;100255.16;4960781;28;20046;-80
2021/12/25 01:05:26;;;;;;;41.63;22.77;;;;;;;9.75;64.49;100254.06;4959725;28;20043;-79
2021/12/25 01:08:12;;;;;;;46.67;24.45;;;;;;;9.78;63.55;100251.47;4965056;28;20047;-80
2021/12/25 01:10:59;;;;;;;46.03;24.40;;;;;;;9.78;63.64;100250.69;4970419;28;20059;-80
2021/12/25 01:13:52;;;;;;;42.85;22.08;;;;;;;9.81;63.95;100252.75;4970087;28;20046;-80
2021/12/25 01:26:30;;;;;;;;;;;;;;;9.88;63.71;100272.06;4975269;28;20039;-80
2021/12/25 01:38:09;;;;;;;;;;;;;;;10.06;64.47;100264.69;4977874;28;20059;-80
2021/12/25 01:41:43;;;;;;;;;;;;;;;10.02;64.86;100259.09;4968640;28;19914;-80
2021/12/25 01:48:01;;;;;;;42.30;23.45;;;;;;;9.86;63.78;100258.81;4973981;28;20050;-80
2021/12/25 01:50:47;;;;;;;40.83;21.33;;;;;;;9.84;64.32;100258.34;4967449;28;20043;-80
2021/12/25 01:53:32;;;;;;;27.30;15.77;;;;;;;9.92;63.92;100253.22;4968035;28;20045;-81
2021/12/25 01:56:17;;;;;;;;;;;;;;;9.96;63.89;100260.41;4973372;28;20042;-80
2021/12/25 01:59:02;;;;;;;41.83;20.73;;;;;;;9.99;64.51;100246.19;4972778;28;20297;-81
2021/12/25 02:01:47;;;;;;;;;;;;;;;9.99;63.84;100248.09;4973219;28;20039;-81
2021/12/25 02:04:32;;;;;;;41.85;21.67;;;;;;;10.06;64.22;100241.03;4982658;28;19914;-81
2021/12/25 02:07:17;;;;;;;;;;;;;;;10.10;62.99;100242.00;4965371;28;20039;-81
2021/12/25 02:10:05;;;;;;;41.58;23.38;;;;;;;9.93;63.05;100238.53;4973018;28;19914;-81
2021/12/25 02:12:50;;;;;;;41.92;22.25;;;;;;;9.89;64.47;100230.22;4972648;28;20058;-80
2021/12/25 02:15:36;;;;;;;47.55;21.33;;;;;;;9.98;64.66;100230.19;4978449;28;20057;-81
2021/12/25 02:21:41;;;;;;;42.50;23.05;;;;;;;9.86;63.45;100228.13;4976005;28;20058;-81
2021/12/25 02:24:26;;;;;;;35.33;20.13;;;;;;;9.94;64.95;100218.41;4962930;28;20039;-81
2021/12/25 02:27:12;;;;;;;30.98;16.08;;;;;;;9.99;63.97;100218.22;4970144;28;20034;-81
2021/12/25 02:29:58;;;;;;;34.38;19.38;;;;;;;10.04;64.33;100216.13;4957991;28;20053;-81
2021/12/25 02:32:44;;;;;;;36.10;17.45;;;;;;;9.92;63.17;100212.47;4967632;28;20054;-80
2021/12/25 02:35:30;;;;;;;45.83;23.38;;;;;;;10.03;63.34;100214.53;4971502;28;20042;-81
2021/12/25 02:38:15;;;;;;;43.03;22.45;;;;;;;10.07;62.43;100209.25;4972900;28;20047;-81
2021/12/25 02:41:01;;;;;;;35.80;19.17;;;;;;;9.99;63.48;100202.72;4977379;28;20521;-80
2021/12/25 02:43:47;;;;;;;47.33;23.92;;;;;;;9.88;63.75;100202.28;4992703;28;20038;-80
2021/12/25 02:46:36;;;;;;;44.72;24.75;;;;;;;9.93;65.42;100184.19;4956538;28;20046;-81
2021/12/25 02:49:24;;;;;;;41.40;22.13;;;;;;;10.04;64.50;100180.81;4965039;28;20035;-80
2021/12/25 02:52:09;;;;;;;46.47;23.13;;;;;;;10.15;64.47;100182.06;4985331;28;20039;-80
2021/12/25 02:54:54;;;;;;;;;;;;;;;10.20;64.88;100187.34;4971518;28;20043;-80
2021/12/25 02:57:39;;;;;;;41.67;22.40;;;;;;;10.09;63.25;100188.78;4973037;28;19918;-80
2021/12/25 03:00:29;;;;;;;;;;;;;;;10.04;63.02;100202.56;4971965;28;20038;-80
2021/12/25 03:03:15;;;;;;;31.73;17.30;;;;;;;10.04;64.54;100194.41;4973994;28;19922;-80
2021/12/25 03:06:05;;;;;;;25.63;14.82;;;;;;;10.10;63.26;100195.84;4985797;28;20046;-80
2021/12/25 03:08:49;;;;;;;45.08;23.90;;;;;;;10.00;62.99;100207.03;4987364;28;20050;-80
2021/12/25 03:11:35;;;;;;;45.78;22.88;;;;;;;9.88;63.70;100196.03;4968680;28;20047;-81
2021/12/25 03:14:36;;;;;;;32.10;17.75;;;;;;;9.91;63.25;100205.44;4975364;28;20057;-80
2021/12/25 03:17:24;;;;;;;43.22;23.42;;;;;;;9.92;64.25;100205.13;4972309;28;20055;-80
2021/12/25 03:20:11;;;;;;;44.90;23.50;;;;;;;9.95;63.76;100223.50;4970810;28;20049;-80
2021/12/25 03:22:56;;;;;;;45.97;24.70;;;;;;;9.94;62.93;100221.09;4952813;28;20051;-80
2021/12/25 03:25:42;;;;;;;34.67;18.40;;;;;;;9.92;63.25;100223.34;4969564;28;20053;-80
2021/12/25 03:28:30;;;;;;;41.22;23.60;;;;;;;10.00;62.31;100217.91;4975164;28;20054;-80
2021/12/25 03:31:18;;;;;;;41.60;21.63;;;;;;;9.99;63.14;100218.22;4958443;28;20046;-80
2021/12/25 03:34:03;;;;;;;33.15;18.88;;;;;;;10.10;63.54;100212.13;4972145;28;20045;-80
2021/12/25 03:36:48;;;;;;;;;;;;;;;10.09;64.13;100202.38;4972567;28;20043;-80
2021/12/25 03:39:33;;;;;;;33.25;19.05;;;;;;;10.09;63.29;100202.38;4969712;28;19914;-80
2021/12/25 03:42:18;;;;;;;33.50;17.52;;;;;;;10.12;61.84;100209.88;4963466;28;20038;-80
2021/12/25 03:45:03;;;;;;;;;;;;;;;10.03;62.30;100198.22;4962968;28;20043;-80
2021/12/25 03:47:51;;;;;;;37.20;19.98;;;;;;;10.16;63.78;100180.16;4971404;28;19914;-81
2021/12/25 03:59:38;;;;;;;36.70;22.20;;;;;;;9.88;60.98;100185.19;4965683;28;20050;-80
2021/12/25 04:02:30;;;;;;;30.85;16.83;;;;;;;9.83;62.73;100196.22;4966829;28;20046;-80
2021/12/25 04:05:18;;;;;;;36.65;22.13;;;;;;;9.85;61.89;100191.25;4955044;28;20058;-80
2021/12/25 04:08:08;;;;;;;39.15;20.50;;;;;;;9.94;63.73;100194.75;4959478;28;20043;-80
2021/12/25 04:11:01;;;;;;;40.25;21.42;;;;;;;10.04;64.56;100196.31;4965179;28;20046;-80
2021/12/25 04:13:46;;;;;;;39.75;19.98;;;;;;;9.98;63.99;100195.69;4955764;28;20039;-80
2021/12/25 04:16:31;;;;;;;29.48;15.68;;;;;;;9.93;62.93;100187.72;4971299;28;20043;-80
2021/12/25 04:19:18;;;;;;;36.70;19.77;;;;;;;9.94;62.41;100183.09;4950894;28;20413;-80
2021/12/25 04:22:08;;;;;;;32.88;20.73;;;;;;;9.95;62.17;100185.50;4976958;28;20046;-80
2021/12/25 04:24:55;;;;;;;37.85;21.75;;;;;;;9.94;62.45;100180.38;4971587;28;20042;-81
2021/12/25 04:27:40;;;;;;;37.45;21.05;;;;;;;9.91;63.07;100192.66;4953907;28;20439;-80
2021/12/25 05:04:38;;;;;;;32.65;18.50;;;;;;;9.85;61.88;100174.97;4972569;28;20051;-81
2021/12/25 05:07:34;;;;;;;35.03;19.60;;;;;;;9.87;61.92;100165.38;4962483;28;20031;-81
2021/12/25 05:10:19;;;;;;;34.05;19.60;;;;;;;9.92;62.83;100175.25;4959409;28;20058;-81
2021/12/25 05:13:04;;;;;;;28.95;14.95;;;;;;;10.00;63.34;100165.50;4957280;28;20069;-80
2021/12/25 05:15:49;;;;;;;;;;;;;;;9.97;62.92;100161.50;4970161;28;20042;-81
2021/12/25 05:18:35;;;;;;;34.03;18.75;;;;;;;9.94;62.65;100158.66;4949226;28;19918;-80
2021/12/25 05:21:20;;;;;;;26.65;15.30;;;;;;;9.94;63.62;100156.72;4958157;28;20043;-81
2021/12/25 05:24:06;;;;;;;39.33;21.05;;;;;;;9.84;63.09;100152.44;4960912;28;20100;-81
2021/12/25 05:26:57;;;;;;;28.73;16.40;;;;;;;9.99;64.26;100156.56;4957595;28;20050;-81
2021/12/25 05:29:46;;;;;;;36.40;18.38;;;;;;;9.97;64.53;100160.69;4985476;28;20042;-80
2021/12/25 05:32:32;;;;;;;35.97;20.98;;;;;;;9.85;63.45;100153.25;4971804;28;20034;-81
2021/12/25 05:35:44;;;;;;;40.92;23.98;;;;;;;9.85;63.71;100147.81;4971625;28;20031;-81
2021/12/25 05:38:50;;;;;;;29.95;16.73;;;;;;;9.85;63.46;100147.81;4982458;28;20518;-81
2021/12/25 05:41:43;;;;;;;35.92;21.15;;;;;;;9.88;62.88;100152.59;4963681;28;20046;-81
2021/12/25 05:44:36;;;;;;;37.55;20.55;;;;;;;9.84;64.22;100157.06;4968916;28;20043;-81
2021/12/25 05:47:43;;;;;;;42.42;24.10;;;;;;;9.83;63.22;100156.28;4973858;28;20042;-81
2021/12/25 05:51:04;;;;;;;35.00;21.70;;;;;;;9.99;65.49;100169.34;4921310;29;20075;-81
2021/12/25 05:54:12;;;;;;;50.58;25.55;;;;;;;9.94;65.22;100167.59;4987633;28;20070;-81
2021/12/25 05:57:16;;;;;;;29.02;17.15;;;;;;;9.97;65.40;100182.44;4986724;28;20043;-82
2021/12/25 06:00:31;;;;;;;33.53;18.40;;;;;;;9.99;65.60;100186.44;4937197;28;20039;-81
2021/12/25 06:03:16;;;;;;;32.17;18.50;;;;;;;9.95;65.11;100187.41;4969924;28;20049;-81
2021/12/25 06:06:01;;;;;;;;;;;;;;;9.91;63.15;100189.16;4971004;28;20049;-84
2021/12/25 06:08:48;;;;;;;34.45;19.85;;;;;;;9.95;63.65;100196.34;4957481;28;19914;-81
2021/12/25 06:11:35;;;;;;;27.05;14.57;;;;;;;9.84;63.51;100190.47;4973533;28;20069;-81
2021/12/25 06:14:21;;;;;;;36.20;19.50;;;;;;;9.84;64.20;100197.81;4970258;28;20049;-82
2021/12/25 06:17:25;;;;;;;31.75;17.50;;;;;;;9.85;65.12;100194.75;4971812;28;20126;-81
2021/12/25 06:20:19;;;;;;;21.30;11.35;;;;;;;9.99;66.65;100196.50;4977049;28;20049;-81
2021/12/25 06:23:18;;;;;;;25.67;15.25;;;;;;;10.18;69.26;100195.03;4988198;28;20042;-81
2021/12/25 06:26:12;;;;;;;33.17;17.98;;;;;;;9.98;66.08;100198.41;4960194;28;20043;-81
2021/12/25 06:29:19;;;;;;;29.88;16.90;;;;;;;10.01;66.50;100210.53;4971576;28;20047;-81
2021/12/25 06:32:23;;;;;;;35.60;20.45;;;;;;;10.07;67.56;100217.41;4978112;28;20046;-81
2021/12/25 06:35:34;;;;;;;33.47;17.77;;;;;;;10.09;67.04;100218.69;4954277;28;20039;-80
2021/12/25 06:38:48;;;;;;;35.90;18.38;;;;;;;9.99;65.06;100220.94;4958364;28;20055;-80
2021/12/25 06:41:59;;;;;;;31.75;18.08;;;;;;;9.96;64.60;100208.78;4977319;28;20043;-81
2021/12/25 06:44:44;;;;;;;29.48;17.52;;;;;;;9.97;64.47;100213.09;4957501;28;20045;-80
2021/12/25 06:47:29;;;;;;;;;;;;;;;9.84;63.41;100200.53;4962282;28;20042;-80
2021/12/25 06:50:15;;;;;;;;;;;;;;;9.68;64.27;100197.50;4968497;28;19922;-81
2021/12/25 06:53:22;;;;;;;25.33;14.40;;;;;;;9.86;63.77;100198.25;4955103;28;19915;-81
2021/12/25 06:56:47;;;;;;;28.42;17.83;;;;;;;9.85;63.64;100205.63;4971119;28;20042;-80
2021/12/25 06:59:41;;;;;;;31.48;16.52;;;;;;;9.90;64.49;100198.44;4958746;28;20035;-81
2021/12/25 07:02:26;;;;;;;28.42;14.75;;;;;;;9.87;64.02;100194.44;4969407;28;20043;-80
2021/12/25 07:05:43;;;;;;;30.63;16.45;;;;;;;9.84;64.05;100200.53;4962558;28;20035;-81
2021/12/25 07:09:05;;;;;;;31.55;17.60;;;;;;;9.80;64.41;100188.72;4981353;28;20054;-80
2021/12/25 07:12:16;;;;;;;35.60;18.42;;;;;;;9.74;62.58;100187.28;4973260;28;20042;-80
2021/12/25 07:15:22;;;;;;;30.65;17.35;;;;;;;9.70;63.68;100191.78;4962672;28;20500;-80
2021/12/25 07:18:20;;;;;;;31.60;18.02;;;;;;;9.74;64.30;100184.56;4957396;28;20408;-80
2021/12/25 07:21:37;;;;;;;29.00;16.00;;;;;;;9.81;64.33;100188.38;4961875;28;20035;-79
2021/12/25 07:24:35;;;;;;;28.42;16.95;;;;;;;9.78;64.25;100190.94;4964230;28;20042;-80
2021/12/25 07:27:39;;;;;;;31.98;17.23;;;;;;;9.71;63.64;100185.19;4974161;28;20054;-80
2021/12/25 07:30:24;;;;;;;;;;;;;;;9.77;64.07;100197.50;4973068;28;20083;-79
2021/12/25 07:33:08;;;;;;;42.95;21.13;;;;;;;9.70;63.25;100195.25;4951876;28;19914;-81
2021/12/25 07:35:54;;;;;;;38.22;16.10;;;;;;;9.78;64.32;100193.66;4969008;28;20414;-83
2021/12/25 07:38:39;;;;;;;52.35;22.45;;;;;;;9.73;63.34;100182.97;4976147;28;20042;-82
2021/12/25 07:41:24;;;;;;;59.53;23.25;;;;;;;9.77;64.79;100189.34;4963218;28;20038;-82
2021/12/25 07:44:09;;;;;;;38.08;17.05;;;;;;;9.88;65.15;100196.03;4950853;28;20062;-81
2021/12/25 07:46:57;;;;;;;53.00;20.25;;;;;;;9.91;65.00;100189.16;4958416;28;20520;-81
2021/12/25 07:49:42;;;;;;;46.00;15.48;;;;;;;9.85;64.79;100194.75;4946891;28;20053;-81
2021/12/25 07:52:28;;;;;;;31.58;16.15;;;;;;;9.95;65.58;100193.63;4976835;28;20046;-82
2021/12/25 07:55:13;;;;;;;46.97;19.70;;;;;;;9.76;64.53;100187.75;4947995;28;20050;-80
2021/12/25 07:58:01;;;;;;;42.92;20.63;;;;;;;9.92;65.45;100186.13;4966861;28;20047;-81
2021/12/25 08:00:46;;;;;;;48.90;19.92;;;;;;;10.06;67.49;100177.75;4969668;28;20074;-82
2021/12/25 08:03:31;;;;;;;51.47;19.00;;;;;;;10.13;68.69;100187.03;4955638;28;20411;-82
2021/12/25 08:06:16;;;;;;;42.95;16.55;;;;;;;10.16;69.15;100175.53;4981367;28;20046;-81
2021/12/25 08:09:03;;;;;;;;;;;;;;;10.22;70.02;100185.09;4976853;28;20064;-81
2021/12/25 08:11:48;;;;;;;37.97;19.88;;;;;;;10.21;70.24;100194.34;4963583;28;19918;-82
2021/12/25 08:14:33;;;;;;;40.92;19.23;;;;;;;10.14;68.95;100210.34;4964680;28;20039;-82
2021/12/25 08:17:17;;;;;;;28.15;13.98;;;;;;;10.11;68.91;100200.13;4989466;28;20426;-82
2021/12/25 08:20:24;;;;;;;36.92;22.25;;;;;;;10.00;66.85;100207.03;4931933;28;20035;-82
2021/12/25 08:23:27;;;;;;;36.50;16.85;;;;;;;10.09;67.42;100201.56;4980692;28;20038;-84
2021/12/25 08:26:33;;;;;;;36.97;18.88;;;;;;;10.20;68.94;100206.38;4969812;28;20039;-82
2021/12/25 08:29:37;;;;;;;33.10;12.73;;;;;;;10.23;70.40;100207.63;4976026;28;20423;-80
2021/12/25 08:32:43;;;;;;;31.48;16.08;;;;;;;10.27;70.33;100197.69;4976085;28;20034;-82
2021/12/25 08:35:47;;;;;;;47.30;24.58;;;;;;;10.16;67.34;100196.44;4969024;28;20035;-82
2021/12/25 08:38:31;;;;;;;36.20;20.05;;;;;;;10.15;67.12;100198.38;4967079;28;20047;-83
2021/12/25 08:41:16;;;;;;;49.75;26.73;;;;;;;10.01;65.03;100195.03;4968700;28;20043;-83
2021/12/25 08:44:08;;;;;;;53.38;28.45;;;;;;;9.97;64.41;100188.66;4961508;28;20039;-83
2021/12/25 08:46:58;;;;;;;47.15;27.05;;;;;;;9.90;62.89;100174.00;4965159;28;20047;-83
2021/12/25 08:49:43;;;;;;;47.35;28.55;;;;;;;9.91;64.88;100181.81;4951466;28;20050;-82
2021/12/25 08:52:28;;;;;;;32.58;16.10;;;;;;;9.90;65.36;100176.72;4962754;28;20053;-82
2021/12/25 08:55:13;;;;;;;42.35;22.27;;;;;;;9.66;62.31;100188.09;4956985;28;20428;-82
2021/12/25 08:57:58;;;;;;;50.85;28.48;;;;;;;9.63;63.98;100186.03;4956093;28;20039;-81
2021/12/25 09:00:45;;;;;;;;;;;;;;;9.44;62.81;100197.22;4955331;28;20054;-83
2021/12/25 09:03:31;;;;;;;43.17;24.67;;;;;;;8.42;64.79;100196.75;4970187;28;19914;-81
2021/12/25 09:06:15;;;;;;;60.58;31.17;;;;;;;6.93;70.81;100198.25;4984788;28;20041;-82
2021/12/25 09:09:00;;;;;;;45.97;24.77;;;;;;;6.58;72.92;100197.91;4982764;28;20058;-85
2021/12/25 09:11:46;;;;;;;58.22;30.85;;;;;;;6.79;72.27;100196.38;4973629;28;20046;-84
2021/12/25 09:14:31;;;;;;;49.17;26.55;;;;;;;6.14;74.00;100192.28;4965549;28;21273;-81
2021/12/25 09:17:16;;;;;;;52.65;25.13;;;;;;;5.92;75.26;100188.34;4969667;28;20051;-81
2021/12/25 09:20:00;;;;;;;52.47;27.60;;;;;;;5.58;78.01;100194.03;4980643;28;20042;-81
2021/12/25 09:22:46;;;;;;;51.72;27.33;;;;;;;5.47;78.19;100189.91;4961888;28;20047;-78
2021/12/25 09:25:32;;;;;;;54.60;26.88;;;;;;;5.79;78.12;100193.69;4962960;28;20058;-82
2021/12/25 09:28:18;;;;;;;71.97;37.80;;;;;;;5.90;76.34;100184.34;4947758;28;20462;-81
2021/12/25 09:31:04;;;;;;;67.18;33.47;;;;;;;6.19;76.22;100176.81;4958872;28;20043;-82
2021/12/25 09:33:49;;;;;;;56.90;33.40;;;;;;;6.17;74.94;100178.19;4972200;28;20039;-82
2021/12/25 09:36:34;;;;;;;;;;;;;;;6.16;75.73;100171.97;4966704;28;20042;-82
2021/12/25 09:39:19;;;;;;;62.90;33.45;;;;;;;6.28;75.68;100166.91;4970488;28;19918;-82
2021/12/25 09:42:05;;;;;;;51.58;26.77;;;;;;;6.05;77.14;100175.16;4968713;28;20050;-82
2021/12/25 09:44:51;;;;;;;70.68;36.63;;;;;;;6.10;76.48;100172.38;4973971;28;20061;-81
2021/12/25 09:47:36;;;;;;;67.78;36.05;;;;;;;6.35;74.91;100172.69;4977881;28;20043;-80
2021/12/25 09:50:21;;;;;;;52.22;28.48;;;;;;;6.06;75.99;100160.56;4971376;28;20038;-81
2021/12/25 09:53:09;;;;;;;48.55;27.67;;;;;;;6.10;76.27;100156.97;4964804;28;20051;-81
2021/12/25 09:55:55;;;;;;;66.70;35.67;;;;;;;6.13;76.06;100161.00;4967628;28;20049;-81
2021/12/25 09:58:43;;;;;;;65.55;36.47;;;;;;;6.12;76.13;100156.69;4953076;28;20415;-81
2021/12/25 10:01:36;;;;;;;66.30;35.53;;;;;;;6.20;75.32;100155.97;4955805;28;20042;-83
2021/12/25 10:04:48;;;;;;;71.07;36.85;;;;;;;6.15;76.57;100156.06;4962755;28;20049;-81
2021/12/25 10:07:34;;;;;;;72.82;39.95;;;;;;;6.06;76.77;100147.06;4985646;28;20046;-82
2021/12/25 10:10:19;;;;;;;63.40;36.20;;;;;;;6.09;76.48;100143.81;4965854;28;20050;-82
2021/12/25 10:13:15;;;;;;;52.55;28.40;;;;;;;6.18;76.74;100139.28;4973417;28;20049;-82
2021/12/25 10:16:21;;;;;;;62.70;35.03;;;;;;;6.32;76.06;100148.19;4995182;28;20440;-82
2021/12/25 10:19:19;;;;;;;56.00;29.92;;;;;;;6.08;77.78;100142.19;4975219;28;20530;-83
2021/12/25 10:22:06;;;;;;;65.07;35.58;;;;;;;6.20;77.08;100137.88;4982414;28;20046;-81
2021/12/25 10:25:08;;;;;;;64.40;34.42;;;;;;;6.20;77.04;100142.47;4962144;28;20042;-81
2021/12/25 10:27:56;;;;;;;68.00;36.90;;;;;;;6.11;76.86;100134.28;4958002;28;20500;-81
2021/12/25 10:30:50;;;;;;;68.18;35.53;;;;;;;6.11;76.19;100138.88;4971361;28;20046;-82
2021/12/25 10:33:51;;;;;;;74.75;38.83;;;;;;;6.07;76.84;100140.59;4962594;28;20046;-82
2021/12/25 10:36:36;;;;;;;62.00;35.95;;;;;;;6.24;75.76;100130.81;4970071;28;20046;-81
2021/12/25 10:39:24;;;;;;;49.72;27.05;;;;;;;6.35;75.59;100132.19;4954878;28;20044;-82
2021/12/25 10:42:16;;;;;;;63.50;35.10;;;;;;;6.09;76.93;100122.22;4963226;28;20031;-81
2021/12/25 10:45:05;;;;;;;64.75;35.70;;;;;;;5.91;76.96;100130.09;4941086;28;20047;-82
2021/12/25 10:48:02;;;;;;;71.13;36.70;;;;;;;6.06;77.37;100118.19;4946082;28;20046;-81
2021/12/25 10:50:48;;;;;;;69.72;38.20;;;;;;;6.15;76.59;100115.59;4946825;28;20055;-81
2021/12/25 10:53:41;;;;;;;71.82;37.35;;;;;;;6.17;77.08;100113.41;4957816;28;20050;-81
2021/12/25 10:56:35;;;;;;;65.75;36.95;;;;;;;6.20;76.22;100115.47;4970900;28;20069;-82
2021/12/25 10:59:20;;;;;;;73.70;36.78;;;;;;;6.11;76.80;100106.50;4963741;28;20035;-85
2021/12/25 11:02:05;;;;;;;52.88;26.90;;;;;;;6.35;76.26;100112.47;4959234;28;20054;-81
2021/12/25 11:04:50;;;;;;;53.60;29.35;;;;;;;6.22;75.96;100102.50;4965112;28;20047;-82
2021/12/25 11:07:34;;;;;;;56.13;28.88;;;;;;;6.10;77.49;100094.09;4969064;28;20042;-82
2021/12/25 11:10:19;;;;;;;55.80;31.73;;;;;;;6.04;77.10;100089.91;4974233;28;20039;-83
2021/12/25 11:13:24;;;;;;;61.72;30.73;;;;;;;6.26;77.73;100092.69;4959133;28;20049;-85
2021/12/25 11:16:14;;;;;;;66.03;36.03;;;;;;;6.22;77.17;100079.00;4968934;28;20045;-85
2021/12/25 11:19:14;;;;;;;68.93;37.58;;;;;;;6.28;77.44;100083.19;4979735;28;20472;-84
2021/12/25 11:21:59;;;;;;;66.50;37.15;;;;;;;6.42;77.12;100075.06;4977027;28;20046;-81
2021/12/25 11:24:45;;;;;;;66.45;37.70;;;;;;;6.27;76.65;100070.00;4963764;28;20356;-83
2021/12/25 11:27:30;;;;;;;69.55;37.45;;;;;;;6.22;77.06;100065.50;4964434;28;20415;-82
2021/12/25 11:30:18;;;;;;;51.70;28.73;;;;;;;6.17;78.02;100060.22;4952565;28;20522;-83
2021/12/25 11:33:03;;;;;;;72.20;38.90;;;;;;;6.15;77.49;100050.81;4961678;28;20420;-83
2021/12/25 11:35:48;;;;;;;57.80;30.95;;;;;;;6.05;78.58;100053.72;4953886;28;20047;-85
2021/12/25 11:38:32;;;;;;;62.78;29.50;;;;;;;6.20;77.63;100054.19;4957877;28;20133;-83
2021/12/25 11:41:18;;;;;;;56.88;30.90;;;;;;;6.11;77.81;100056.03;4961580;28;20046;-82
2021/12/25 11:44:07;;;;;;;64.22;34.92;;;;;;;5.98;79.21;100049.53;4964085;28;20057;-83
2021/12/25 11:46:51;;;;;;;66.20;36.53;;;;;;;5.90;79.53;100036.75;4964866;28;20065;-85
2021/12/25 11:49:58;;;;;;;54.67;29.13;;;;;;;6.14;78.79;100036.53;4964416;28;20039;-84
2021/12/25 11:53:05;;;;;;;69.68;36.45;;;;;;;6.26;77.98;100031.41;4973586;28;20500;-84
2021/12/25 11:58:57;;;;;;;;;;;;;;;6.24;77.90;100027.41;4974912;28;20055;-80
2021/12/25 12:01:51;;;;;;;73.25;36.67;;;;;;;6.80;76.72;100011.53;4955373;28;19914;-85
2021/12/25 12:04:37;;;;;;;65.57;36.80;;;;;;;6.49;77.03;100005.25;4959663;28;20065;-84
2021/12/25 12:07:28;;;;;;;71.35;36.03;;;;;;;6.59;77.00;99999.63;4955327;28;20050;-85
2021/12/25 12:10:57;;;;;;;81.85;38.10;;;;;;;6.88;75.72;99989.16;4963356;28;20045;-85
2021/12/25 12:14:23;;;;;;;66.40;36.77;;;;;;;6.69;76.04;100007.47;4963030;28;20069;-86
2021/12/25 12:17:20;;;;;;;71.18;36.58;;;;;;;6.83;76.54;100008.22;4984519;28;20642;-85
2021/12/25 12:20:15;;;;;;;70.22;36.60;;;;;;;6.71;76.78;100007.94;4976765;28;20050;-85
2021/12/25 12:23:16;;;;;;;63.33;35.85;;;;;;;6.58;76.49;99995.31;4971475;28;20038;-86
2021/12/25 12:26:06;;;;;;;70.18;35.95;;;;;;;6.65;77.11;100000.28;4966037;28;20050;-85
2021/12/25 12:28:53;;;;;;;72.78;37.60;;;;;;;6.78;77.51;99994.81;4966567;28;20053;-85
2021/12/25 12:31:42;;;;;;;63.72;35.63;;;;;;;7.05;75.59;99984.97;4963983;28;20049;-85
2021/12/25 12:34:31;;;;;;;67.70;36.55;;;;;;;6.96;76.30;99984.91;4962931;28;20058;-86
2021/12/25 12:37:16;;;;;;;68.95;37.33;;;;;;;6.96;75.60;99994.94;4978444;28;20050;-85
2021/12/25 12:40:04;;;;;;;50.65;28.17;;;;;;;6.97;75.86;99988.41;4955527;28;20045;-85
2021/12/25 12:42:57;;;;;;;70.68;35.20;;;;;;;7.15;75.25;99987.41;4960119;28;20428;-85
2021/12/25 12:45:52;;;;;;;70.55;36.13;;;;;;;6.99;75.34;99973.50;4960981;28;20039;-85
2021/12/25 12:48:37;;;;;;;60.80;34.05;;;;;;;7.11;75.91;99970.22;4955494;28;20046;-84
2021/12/25 12:51:22;;;;;;;50.00;26.25;;;;;;;7.18;75.37;99986.78;4985840;28;20049;-85
2021/12/25 12:54:07;;;;;;;48.80;25.23;;;;;;;7.30;75.05;99971.59;4958637;28;20065;-85
2021/12/25 12:57:03;;;;;;;53.05;26.70;;;;;;;7.32;74.76;99960.44;4957896;28;20054;-85
2021/12/25 13:00:06;;;;;;;55.17;28.15;;;;;;;7.50;73.74;99966.72;4964245;28;20049;-85
2021/12/25 13:02:54;;;;;;;63.25;33.00;;;;;;;7.38;73.08;99964.63;4961490;28;20057;-85
2021/12/25 13:05:42;;;;;;;65.32;34.72;;;;;;;6.88;74.96;99959.44;4958493;28;20054;-85
2021/12/25 13:08:30;;;;;;;62.63;32.92;;;;;;;7.08;75.44;99954.63;4971700;28;20046;-85
2021/12/25 13:14:05;;;;;;;63.85;34.70;;;;;;;6.97;76.03;99955.97;4973611;28;20074;-85
2021/12/25 13:16:50;;;;;;;57.67;32.63;;;;;;;7.05;75.44;99955.25;4967917;28;20057;-86
2021/12/25 13:19:46;;;;;;;48.38;26.75;;;;;;;7.09;75.94;99948.91;4956879;28;20053;-85
2021/12/25 13:22:31;;;;;;;60.60;33.58;;;;;;;6.70;77.95;99948.84;4959021;28;20049;-85
2021/12/25 13:25:19;;;;;;;44.22;24.83;;;;;;;6.87;77.24;99948.94;4954635;28;20054;-86
2021/12/25 13:28:04;;;;;;;59.65;33.83;;;;;;;6.91;76.66;99954.53;4954474;28;20046;-85
2021/12/25 13:30:53;;;;;;;63.33;34.75;;;;;;;6.88;76.73;99950.53;4968018;28;20412;-84
2021/12/25 13:33:54;;;;;;;61.83;34.30;;;;;;;6.81;76.97;99950.16;4964768;28;20042;-84
2021/12/25 13:36:40;;;;;;;65.13;35.58;;;;;;;6.76;77.35;99942.97;4964965;28;20291;-84
2021/12/25 13:39:28;;;;;;;63.65;34.97;;;;;;;6.77;76.82;99952.69;4949971;28;20046;-84
2021/12/25 13:42:16;;;;;;;54.50;31.08;;;;;;;7.01;76.54;99946.16;4962845;28;20062;-83
2021/12/25 13:45:01;;;;;;;56.05;32.72;;;;;;;6.99;75.14;99943.75;4969440;28;20050;-85
2021/12/25 13:47:46;;;;;;;48.67;24.92;;;;;;;6.90;76.03;99942.94;4957377;28;20050;-84
2021/12/25 13:50:33;;;;;;;45.05;25.30;;;;;;;6.84;76.52;99942.25;4952181;28;20045;-84
2021/12/25 13:53:18;;;;;;;63.67;34.00;;;;;;;6.90;76.58;99944.84;4978803;28;20502;-83
2021/12/25 13:56:08;;;;;;;60.08;32.70;;;;;;;6.83;77.12;99940.66;4960224;28;20523;-83
2021/12/25 13:58:53;;;;;;;62.75;32.75;;;;;;;6.80;77.72;99948.59;4968290;28;20416;-84
2021/12/25 14:01:39;;;;;;;51.72;28.45;;;;;;;6.83;77.26;99943.34;4963194;28;20050;-85
2021/12/25 14:04:23;;;;;;;44.83;25.25;;;;;;;6.72;77.46;99933.91;4968778;28;20050;-84
2021/12/25 14:07:10;;;;;;;55.00;28.13;;;;;;;6.67;78.43;99944.84;4973278;28;20408;-84
2021/12/25 14:10:08;;;;;;;61.00;33.15;;;;;;;6.95;78.08;99937.41;4956623;28;20051;-83
2021/12/25 14:12:56;;;;;;;63.58;34.47;;;;;;;7.01;77.66;99932.66;4988763;28;20049;-85
2021/12/25 14:15:45;;;;;;;61.47;33.75;;;;;;;6.90;78.16;99936.72;4965762;28;20054;-85
2021/12/25 14:18:36;;;;;;;66.50;33.65;;;;;;;7.04;77.27;99937.44;4982322;28;20062;-85
2021/12/25 14:21:23;;;;;;;60.22;34.20;;;;;;;6.95;78.26;99931.19;4942611;28;20049;-83
2021/12/25 14:24:15;;;;;;;64.00;35.10;;;;;;;7.37;76.29;99932.47;4948828;28;20053;-84
2021/12/25 14:27:12;;;;;;;67.82;34.08;;;;;;;7.39;76.22;99922.94;4975034;28;20050;-85
2021/12/25 14:30:08;;;;;;;54.42;29.73;;;;;;;7.61;75.21;99927.47;4970250;28;20046;-84
2021/12/25 14:32:58;;;;;;;60.05;32.90;;;;;;;7.84;73.81;99911.91;4987721;28;20057;-90
2021/12/25 14:35:43;;;;;;;56.38;32.17;;;;;;;7.55;74.68;99917.91;4965450;28;20041;-83